createdAt,value
2016-11-20T00:00:48.780Z,4
2016-11-20T00:02:01.211Z,0
2016-11-20T00:03:14.251Z,0
2016-11-20T00:04:27.261Z,0
2016-11-20T00:05:40.214Z,0
2016-11-20T00:06:53.719Z,0
2016-11-20T00:08:07.221Z,0
2016-11-20T00:09:19.710Z,0
2016-11-20T00:10:31.142Z,0
2016-11-20T00:11:44.119Z,0
2016-11-20T00:12:57.070Z,0
2016-11-20T00:14:10.104Z,0
2016-11-20T00:15:23.088Z,0
2016-11-20T00:16:36.060Z,0
2016-11-20T00:17:49.565Z,0
2016-11-20T00:19:02.618Z,0
2016-11-20T00:20:13.999Z,0
2016-11-20T00:21:27.515Z,0
2016-11-20T00:22:39.921Z,0
2016-11-20T00:23:52.910Z,0
2016-11-20T00:25:06.443Z,0
2016-11-20T00:26:19.434Z,0
2016-11-20T00:27:31.935Z,0
2016-11-20T00:28:44.412Z,0
2016-11-20T00:29:57.959Z,0
2016-11-20T00:31:10.908Z,0
2016-11-20T00:32:23.928Z,0
2016-11-20T00:33:36.913Z,0
2016-11-20T00:34:49.918Z,0
2016-11-20T00:36:02.962Z,0
2016-11-20T00:37:16.008Z,0
2016-11-20T00:38:29.082Z,0
2016-11-20T00:39:42.055Z,0
2016-11-20T00:40:53.997Z,0
2016-11-20T00:42:07.081Z,0
2016-11-20T00:43:20.572Z,0
2016-11-20T00:44:34.029Z,0
2016-11-20T00:45:46.551Z,0
2016-11-20T00:46:59.532Z,0
2016-11-20T00:48:12.019Z,0
2016-11-20T00:49:25.530Z,0
2016-11-20T00:50:38.566Z,0
2016-11-20T00:51:52.131Z,0
2016-11-20T00:53:03.011Z,0
2016-11-20T00:54:15.948Z,0
2016-11-20T00:55:27.887Z,0
2016-11-20T00:56:41.410Z,0
2016-11-20T00:57:54.967Z,0
2016-11-20T00:59:06.967Z,0
2016-11-20T01:00:19.984Z,0
2016-11-20T01:01:32.987Z,0
2016-11-20T01:02:46.017Z,0
2016-11-20T01:03:58.975Z,0
2016-11-20T01:05:11.440Z,0
2016-11-20T01:06:24.416Z,0
2016-11-20T01:07:36.884Z,0
2016-11-20T01:08:50.399Z,0
2016-11-20T01:10:03.419Z,0
2016-11-20T01:11:16.855Z,0
2016-11-20T01:12:29.361Z,0
2016-11-20T01:13:41.233Z,0
2016-11-20T01:14:54.730Z,0
2016-11-20T01:16:08.256Z,0
2016-11-20T01:17:21.770Z,0
2016-11-20T01:18:35.285Z,0
2016-11-20T01:19:48.241Z,0
2016-11-20T01:21:01.190Z,0
2016-11-20T01:22:13.648Z,0
2016-11-20T01:23:25.583Z,0
2016-11-20T01:24:39.148Z,0
2016-11-20T01:25:52.179Z,0
2016-11-20T01:27:05.763Z,0
2016-11-20T01:28:18.766Z,0
2016-11-20T01:29:32.362Z,0
2016-11-20T01:30:45.397Z,0
2016-11-20T01:31:58.450Z,0
2016-11-20T01:33:11.538Z,0
2016-11-20T01:34:24.533Z,0
2016-11-20T01:35:36.484Z,0
2016-11-20T01:36:50.022Z,0
2016-11-20T01:38:03.045Z,0
2016-11-20T01:39:16.621Z,0
2016-11-20T01:40:29.652Z,0
2016-11-20T01:41:42.682Z,0
2016-11-20T01:43:27.320Z,0
2016-11-20T01:44:40.876Z,0
2016-11-20T01:45:52.876Z,0
2016-11-20T01:47:05.392Z,0
2016-11-20T01:48:19.065Z,0
2016-11-20T01:49:32.611Z,0
2016-11-20T01:50:45.737Z,0
2016-11-20T01:51:58.752Z,0
2016-11-20T01:53:11.703Z,0
2016-11-20T01:54:24.196Z,0
2016-11-20T01:55:37.248Z,0
2016-11-20T01:56:50.325Z,0
2016-11-20T01:58:03.419Z,0
2016-11-20T01:59:16.468Z,0
2016-11-20T02:00:29.449Z,0
2016-11-20T02:02:14.054Z,0
2016-11-20T02:03:27.643Z,0
2016-11-20T02:04:40.680Z,0
2016-11-20T02:05:53.734Z,0
2016-11-20T02:07:07.352Z,0
2016-11-20T02:08:20.434Z,0
2016-11-20T02:09:32.923Z,0
2016-11-20T02:10:46.504Z,0
2016-11-20T02:11:59.591Z,0
2016-11-20T02:13:13.120Z,0
2016-11-20T02:14:26.677Z,0
2016-11-20T02:15:39.727Z,0
2016-11-20T02:16:52.172Z,0
2016-11-20T02:18:05.698Z,0
2016-11-20T02:19:19.231Z,0
2016-11-20T02:20:32.780Z,0
2016-11-20T02:21:45.281Z,0
2016-11-20T02:22:57.790Z,0
2016-11-20T02:24:11.335Z,0
2016-11-20T02:25:24.376Z,0
2016-11-20T02:26:37.911Z,0
2016-11-20T02:27:50.943Z,0
2016-11-20T02:29:04.503Z,0
2016-11-20T02:30:18.051Z,0
2016-11-20T02:31:30.502Z,0
2016-11-20T02:32:43.549Z,0
2016-11-20T02:33:57.100Z,0
2016-11-20T02:35:10.681Z,0
2016-11-20T02:36:24.229Z,0
2016-11-20T02:37:37.754Z,0
2016-11-20T02:39:20.821Z,0
2016-11-20T02:40:33.815Z,0
2016-11-20T02:41:46.763Z,0
2016-11-20T02:42:59.776Z,0
2016-11-20T02:44:13.375Z,0
2016-11-20T02:45:26.901Z,0
2016-11-20T02:46:39.929Z,0
2016-11-20T02:48:55.682Z,0
2016-11-20T02:50:08.680Z,0
2016-11-20T02:51:22.198Z,0
2016-11-20T02:52:35.273Z,0
2016-11-20T02:53:48.243Z,0
2016-11-20T02:55:01.263Z,0
2016-11-20T02:56:13.231Z,0
2016-11-20T02:57:26.274Z,0
2016-11-20T02:58:39.285Z,0
2016-11-20T02:59:52.861Z,0
2016-11-20T03:02:50.553Z,0
2016-11-20T03:04:03.612Z,0
2016-11-20T03:05:16.041Z,0
2016-11-20T03:06:29.634Z,0
2016-11-20T03:07:43.268Z,0
2016-11-20T03:08:56.795Z,0
2016-11-20T03:10:10.343Z,0
2016-11-20T03:11:22.868Z,0
2016-11-20T03:12:36.372Z,0
2016-11-20T03:13:49.896Z,0
2016-11-20T03:15:03.441Z,0
2016-11-20T03:16:16.483Z,0
2016-11-20T03:17:29.026Z,0
2016-11-20T03:18:42.093Z,0
2016-11-20T03:19:55.160Z,0
2016-11-20T03:21:08.167Z,0
2016-11-20T03:22:20.665Z,0
2016-11-20T03:23:34.209Z,0
2016-11-20T03:24:47.791Z,0
2016-11-20T03:26:01.342Z,0
2016-11-20T03:27:13.854Z,0
2016-11-20T03:28:25.796Z,0
2016-11-20T03:29:39.423Z,0
2016-11-20T03:30:52.454Z,0
2016-11-20T03:32:05.493Z,0
2016-11-20T03:33:17.991Z,0
2016-11-20T03:34:30.482Z,0
2016-11-20T03:35:44.030Z,0
2016-11-20T03:36:57.091Z,0
2016-11-20T03:38:09.569Z,0
2016-11-20T03:39:23.066Z,0
2016-11-20T03:40:35.555Z,0
2016-11-20T03:41:48.596Z,0
2016-11-20T03:43:01.628Z,0
2016-11-20T03:44:45.757Z,0
2016-11-20T03:45:59.253Z,0
2016-11-20T03:47:12.814Z,0
2016-11-20T03:48:25.812Z,0
2016-11-20T03:49:39.403Z,0
2016-11-20T03:50:51.818Z,0
2016-11-20T03:52:04.797Z,0
2016-11-20T03:53:17.855Z,0
2016-11-20T03:54:31.405Z,0
2016-11-20T03:55:44.464Z,0
2016-11-20T03:56:57.035Z,0
2016-11-20T03:58:10.570Z,0
2016-11-20T03:59:24.177Z,0
2016-11-20T04:00:37.710Z,0
2016-11-20T04:01:51.261Z,0
2016-11-20T04:03:04.239Z,0
2016-11-20T04:04:17.191Z,0
2016-11-20T04:05:29.777Z,0
2016-11-20T04:06:43.374Z,0
2016-11-20T04:07:56.397Z,0
2016-11-20T04:09:09.933Z,0
2016-11-20T04:10:22.396Z,0
2016-11-20T04:12:06.562Z,0
2016-11-20T04:13:20.120Z,0
2016-11-20T04:14:33.082Z,0
2016-11-20T04:16:48.851Z,0
2016-11-20T04:18:02.429Z,0
2016-11-20T04:19:15.953Z,0
2016-11-20T04:20:28.388Z,0
2016-11-20T04:22:12.049Z,0
2016-11-20T04:23:25.101Z,0
2016-11-20T04:24:38.673Z,0
2016-11-20T04:25:51.648Z,0
2016-11-20T04:27:04.706Z,0
2016-11-20T04:28:17.225Z,0
2016-11-20T04:29:30.245Z,0
2016-11-20T04:30:42.706Z,0
2016-11-20T04:31:55.702Z,0
2016-11-20T04:33:09.215Z,0
2016-11-20T04:34:22.695Z,0
2016-11-20T04:35:35.187Z,0
2016-11-20T04:36:48.256Z,0
2016-11-20T04:38:00.221Z,0
2016-11-20T04:39:13.181Z,0
2016-11-20T04:40:25.652Z,0
2016-11-20T04:41:38.135Z,0
2016-11-20T04:42:50.644Z,0
2016-11-20T04:44:03.636Z,0
2016-11-20T04:45:16.089Z,0
2016-11-20T04:46:29.201Z,0
2016-11-20T04:47:42.691Z,0
2016-11-20T04:49:27.419Z,0
2016-11-20T04:50:39.918Z,0
2016-11-20T04:51:52.952Z,0
2016-11-20T04:53:06.472Z,0
2016-11-20T04:54:18.949Z,0
2016-11-20T04:55:32.440Z,0
2016-11-20T04:56:45.926Z,0
2016-11-20T04:57:59.460Z,0
2016-11-20T04:59:13.025Z,0
2016-11-20T05:00:26.024Z,0
2016-11-20T05:01:39.096Z,0
2016-11-20T05:02:52.594Z,0
2016-11-20T05:04:05.566Z,0
2016-11-20T05:05:19.207Z,0
2016-11-20T05:06:32.778Z,0
2016-11-20T05:07:46.349Z,0
2016-11-20T05:08:59.436Z,0
2016-11-20T05:10:13.093Z,0
2016-11-20T05:11:26.242Z,0
2016-11-20T05:12:39.894Z,0
2016-11-20T05:13:53.533Z,0
2016-11-20T05:15:06.648Z,0
2016-11-20T05:16:18.651Z,0
2016-11-20T05:17:32.213Z,0
2016-11-20T05:18:44.775Z,0
2016-11-20T05:19:57.316Z,0
2016-11-20T05:21:10.347Z,0
2016-11-20T05:22:23.394Z,0
2016-11-20T05:23:35.372Z,0
2016-11-20T05:24:48.437Z,0
2016-11-20T05:26:02.012Z,0
2016-11-20T05:27:13.994Z,0
2016-11-20T05:28:27.035Z,0
2016-11-20T05:29:40.043Z,0
2016-11-20T05:30:53.156Z,0
2016-11-20T05:32:06.666Z,0
2016-11-20T05:33:20.339Z,0
2016-11-20T05:34:32.802Z,0
2016-11-20T05:35:46.431Z,0
2016-11-20T05:37:00.049Z,0
2016-11-20T05:38:13.637Z,0
2016-11-20T05:39:27.276Z,0
2016-11-20T05:40:39.782Z,0
2016-11-20T05:41:53.407Z,0
2016-11-20T05:43:06.997Z,0
2016-11-20T05:44:20.019Z,0
2016-11-20T05:45:33.649Z,0
2016-11-20T05:46:46.125Z,0
2016-11-20T05:47:59.695Z,0
2016-11-20T05:49:12.262Z,0
2016-11-20T05:50:56.961Z,0
2016-11-20T05:52:10.064Z,0
2016-11-20T05:53:22.625Z,0
2016-11-20T05:54:35.701Z,0
2016-11-20T05:55:48.750Z,0
2016-11-20T05:57:00.771Z,0
2016-11-20T05:58:14.380Z,0
2016-11-20T05:59:27.426Z,0
2016-11-20T06:00:41.036Z,0
2016-11-20T06:01:54.134Z,0
2016-11-20T06:03:07.811Z,0
2016-11-20T06:04:21.397Z,0
2016-11-20T06:05:34.934Z,0
2016-11-20T06:06:47.982Z,0
2016-11-20T06:08:01.016Z,0
2016-11-20T06:09:12.981Z,0
2016-11-20T06:10:26.502Z,0
2016-11-20T06:11:40.122Z,0
2016-11-20T06:12:52.113Z,0
2016-11-20T06:14:05.156Z,0
2016-11-20T06:15:18.671Z,0
2016-11-20T06:16:32.195Z,0
2016-11-20T06:17:45.827Z,0
2016-11-20T06:18:59.362Z,0
2016-11-20T06:20:12.941Z,0
2016-11-20T06:21:25.480Z,0
2016-11-20T06:22:38.578Z,0
2016-11-20T06:23:52.273Z,0
2016-11-20T06:25:05.926Z,0
2016-11-20T06:26:18.550Z,0
2016-11-20T06:27:32.138Z,0
2016-11-20T06:28:45.767Z,0
2016-11-20T06:29:58.319Z,0
2016-11-20T06:31:11.943Z,0
2016-11-20T06:32:23.938Z,0
2016-11-20T06:33:37.046Z,0
2016-11-20T06:34:50.615Z,0
2016-11-20T06:36:03.106Z,0
2016-11-20T06:37:15.131Z,0
2016-11-20T06:38:28.208Z,0
2016-11-20T06:39:41.181Z,0
2016-11-20T06:40:54.804Z,0
2016-11-20T06:42:07.888Z,0
2016-11-20T06:43:21.449Z,0
2016-11-20T06:44:34.466Z,0
2016-11-20T06:45:47.538Z,0
2016-11-20T06:47:00.627Z,0
2016-11-20T06:48:14.225Z,0
2016-11-20T06:49:27.285Z,0
2016-11-20T06:50:40.872Z,0
2016-11-20T06:51:53.374Z,0
2016-11-20T06:53:06.953Z,0
2016-11-20T06:54:19.442Z,0
2016-11-20T06:55:32.437Z,0
2016-11-20T06:56:45.957Z,0
2016-11-20T06:58:30.052Z,0
2016-11-20T06:59:43.589Z,0
2016-11-20T07:00:56.111Z,0
2016-11-20T07:02:08.663Z,0
2016-11-20T07:03:21.741Z,0
2016-11-20T07:04:34.232Z,0
2016-11-20T07:05:47.281Z,0
2016-11-20T07:07:00.233Z,0
2016-11-20T07:08:13.248Z,0
2016-11-20T07:09:26.781Z,0
2016-11-20T07:10:40.356Z,0
2016-11-20T07:11:53.383Z,0
2016-11-20T07:13:06.899Z,0
2016-11-20T07:14:20.507Z,0
2016-11-20T07:15:34.132Z,0
2016-11-20T07:16:47.598Z,0
2016-11-20T07:18:01.223Z,0
2016-11-20T07:19:14.706Z,0
2016-11-20T07:20:28.271Z,0
2016-11-20T07:21:40.813Z,0
2016-11-20T07:22:53.893Z,0
2016-11-20T07:24:07.427Z,0
2016-11-20T07:25:20.498Z,0
2016-11-20T07:27:05.155Z,0
2016-11-20T07:28:18.137Z,0
2016-11-20T07:29:31.202Z,0
2016-11-20T07:30:43.687Z,0
2016-11-20T07:31:57.281Z,0
2016-11-20T07:33:10.864Z,0
2016-11-20T07:34:24.505Z,0
2016-11-20T07:35:38.069Z,0
2016-11-20T07:36:51.062Z,0
2016-11-20T07:38:04.113Z,0
2016-11-20T07:39:16.642Z,0
2016-11-20T07:40:30.210Z,0
2016-11-20T07:41:43.837Z,4
2016-11-20T07:42:56.309Z,0
2016-11-20T07:44:09.335Z,0
2016-11-20T07:45:22.855Z,4
2016-11-20T07:46:36.377Z,4
2016-11-20T07:47:48.815Z,4
2016-11-20T07:49:02.342Z,4
2016-11-20T07:50:15.351Z,8
2016-11-20T07:51:28.943Z,8
2016-11-20T07:52:42.546Z,12
2016-11-20T07:53:56.123Z,12
2016-11-20T07:55:09.728Z,20
2016-11-20T07:56:23.284Z,24
2016-11-20T07:57:36.834Z,32
2016-11-20T07:58:50.407Z,40
2016-11-20T08:00:03.398Z,52
2016-11-20T08:01:16.950Z,68
2016-11-20T08:02:30.470Z,84
2016-11-20T08:03:43.977Z,100
2016-11-20T08:04:57.569Z,120
2016-11-20T08:06:10.664Z,140
2016-11-20T08:07:24.214Z,176
2016-11-20T08:08:37.207Z,212
2016-11-20T08:09:50.768Z,256
2016-11-20T08:11:03.274Z,300
2016-11-20T08:12:16.513Z,380
2016-11-20T08:13:30.035Z,460
2016-11-20T08:14:42.484Z,540
2016-11-20T08:15:55.483Z,636
2016-11-20T08:17:08.986Z,744
2016-11-20T08:18:20.937Z,848
2016-11-20T08:19:34.003Z,968
2016-11-20T08:20:47.095Z,1120
2016-11-20T08:22:00.160Z,1272
2016-11-20T08:23:13.731Z,1428
2016-11-20T08:24:26.806Z,1608
2016-11-20T08:25:40.361Z,1968
2016-11-20T08:26:53.383Z,2788
2016-11-20T08:28:06.418Z,2696
2016-11-20T08:29:18.964Z,3092
2016-11-20T08:30:31.975Z,6704
2016-11-20T08:31:44.966Z,9672
2016-11-20T08:32:58.559Z,7960
2016-11-20T08:34:10.525Z,10464
2016-11-20T08:35:24.092Z,13760
2016-11-20T08:36:37.103Z,8280
2016-11-20T08:37:50.654Z,5404
2016-11-20T08:39:04.225Z,5756
2016-11-20T08:40:16.702Z,6708
2016-11-20T08:41:29.705Z,8900
2016-11-20T08:42:43.382Z,11328
2016-11-20T08:43:56.432Z,17792
2016-11-20T08:45:09.465Z,25184
2016-11-20T08:46:22.543Z,31904
2016-11-20T08:47:35.610Z,30752
2016-11-20T08:48:49.105Z,24992
2016-11-20T08:50:01.080Z,24416
2016-11-20T08:51:14.056Z,31232
2016-11-20T08:52:27.111Z,29280
2016-11-20T08:53:40.699Z,42080
2016-11-20T08:54:53.764Z,42016
2016-11-20T08:56:06.307Z,47008
2016-11-20T08:57:19.393Z,47488
2016-11-20T08:58:32.408Z,48832
2016-11-20T08:59:45.929Z,48800
2016-11-20T09:00:59.458Z,51008
2016-11-20T09:02:12.496Z,26592
2016-11-20T09:03:25.510Z,55360
2016-11-20T09:04:38.060Z,15052
2016-11-20T09:05:49.984Z,46336
2016-11-20T09:07:03.498Z,11136
2016-11-20T09:08:17.107Z,11796
2016-11-20T09:09:30.656Z,38016
2016-11-20T09:10:44.284Z,33216
2016-11-20T09:11:57.341Z,13224
2016-11-20T09:13:10.857Z,8160
2016-11-20T09:14:23.387Z,10740
2016-11-20T09:15:36.393Z,8384
2016-11-20T09:16:49.894Z,7192
2016-11-20T09:18:02.888Z,6620
2016-11-20T09:19:16.496Z,6592
2016-11-20T09:20:29.582Z,5720
2016-11-20T09:21:42.639Z,6012
2016-11-20T09:22:55.663Z,7208
2016-11-20T09:24:08.738Z,7380
2016-11-20T09:25:21.761Z,7176
2016-11-20T09:26:35.295Z,6328
2016-11-20T09:27:48.317Z,6456
2016-11-20T09:29:01.355Z,5640
2016-11-20T09:30:14.881Z,6364
2016-11-20T09:31:59.656Z,6460
2016-11-20T09:33:13.234Z,6624
2016-11-20T09:34:26.252Z,7064
2016-11-20T09:35:39.293Z,8512
2016-11-20T09:38:36.429Z,7720
2016-11-20T09:39:49.478Z,5784
2016-11-20T09:41:03.032Z,4860
2016-11-20T09:42:16.555Z,4540
2016-11-20T09:43:30.158Z,4604
2016-11-20T09:44:42.620Z,4660
2016-11-20T09:45:56.148Z,4656
2016-11-20T09:47:09.237Z,4752
2016-11-20T09:48:21.247Z,5040
2016-11-20T09:49:34.792Z,5248
2016-11-20T09:50:48.360Z,5812
2016-11-20T09:52:01.837Z,6520
2016-11-20T09:53:14.878Z,6412
2016-11-20T09:54:27.877Z,5948
2016-11-20T09:55:41.451Z,5540
2016-11-20T09:56:54.962Z,5220
2016-11-20T09:58:08.533Z,5232
2016-11-20T09:59:21.569Z,6288
2016-11-20T10:00:34.573Z,8200
2016-11-20T10:01:47.629Z,8120
2016-11-20T10:03:00.107Z,5628
2016-11-20T10:04:13.668Z,5536
2016-11-20T10:05:27.232Z,6200
2016-11-20T10:06:40.780Z,7160
2016-11-20T10:07:54.343Z,8120
2016-11-20T10:09:07.988Z,8912
2016-11-20T10:10:21.566Z,9612
2016-11-20T10:11:35.153Z,12312
2016-11-20T10:12:48.156Z,23136
2016-11-20T10:15:46.433Z,29504
2016-11-20T10:16:59.015Z,18560
2016-11-20T10:18:10.931Z,14560
2016-11-20T10:19:24.471Z,18656
2016-11-20T10:20:37.540Z,19072
2016-11-20T10:21:50.502Z,18880
2016-11-20T10:23:04.071Z,16608
2016-11-20T10:24:17.586Z,14092
2016-11-20T10:25:31.184Z,14876
2016-11-20T10:26:44.810Z,18432
2016-11-20T10:27:57.338Z,20704
2016-11-20T10:29:10.436Z,20096
2016-11-20T10:30:23.954Z,18944
2016-11-20T10:31:36.454Z,18528
2016-11-20T10:32:50.070Z,19008
2016-11-20T10:34:03.184Z,19584
2016-11-20T10:35:15.655Z,36224
2016-11-20T10:36:29.307Z,19904
2016-11-20T10:37:42.828Z,41376
2016-11-20T10:38:55.902Z,81888
2016-11-20T10:40:09.499Z,69760
2016-11-20T10:41:22.592Z,82720
2016-11-20T10:42:36.191Z,83104
2016-11-20T10:43:49.780Z,54560
2016-11-20T10:45:02.763Z,69472
2016-11-20T10:46:15.215Z,83040
2016-11-20T10:47:28.241Z,79296
2016-11-20T10:48:41.298Z,82336
2016-11-20T10:49:54.833Z,79936
2016-11-20T10:51:07.881Z,78848
2016-11-20T10:52:21.467Z,76832
2016-11-20T10:53:35.020Z,31136
2016-11-20T10:54:48.095Z,42944
2016-11-20T10:56:01.712Z,73984
2016-11-20T10:57:15.349Z,31456
2016-11-20T10:58:27.887Z,71424
2016-11-20T10:59:41.483Z,24800
2016-11-20T11:00:54.563Z,41792
2016-11-20T11:02:07.639Z,77376
2016-11-20T11:03:20.646Z,35008
2016-11-20T11:04:33.652Z,23040
2016-11-20T11:05:47.240Z,57664
2016-11-20T11:07:00.809Z,27584
2016-11-20T11:08:14.330Z,72032
2016-11-20T11:09:27.934Z,76160
2016-11-20T11:10:41.524Z,69632
2016-11-20T11:11:53.496Z,73216
2016-11-20T11:13:07.058Z,73888
2016-11-20T11:14:20.100Z,57696
2016-11-20T11:15:33.078Z,37184
2016-11-20T11:16:46.138Z,29984
2016-11-20T11:17:59.804Z,57120
2016-11-20T11:19:13.353Z,69088
2016-11-20T11:20:26.363Z,67040
2016-11-20T11:21:39.461Z,63008
2016-11-20T11:22:53.026Z,32384
2016-11-20T11:24:06.645Z,66048
2016-11-20T11:25:19.691Z,65632
2016-11-20T11:26:33.205Z,64320
2016-11-20T11:27:46.191Z,19968
2016-11-20T11:30:43.948Z,68064
2016-11-20T11:31:56.910Z,65216
2016-11-20T11:33:09.981Z,62656
2016-11-20T11:34:23.538Z,44672
2016-11-20T11:35:37.174Z,62048
2016-11-20T11:36:50.721Z,61888
2016-11-20T11:38:04.336Z,37504
2016-11-20T11:39:17.371Z,19680
2016-11-20T11:40:30.917Z,23488
2016-11-20T11:41:44.439Z,57280
2016-11-20T11:42:56.417Z,57408
2016-11-20T11:44:09.404Z,53024
2016-11-20T11:45:21.920Z,54368
2016-11-20T11:46:35.004Z,39520
2016-11-20T11:47:48.574Z,41824
2016-11-20T11:49:01.628Z,48128
2016-11-20T11:50:15.244Z,40000
2016-11-20T11:51:27.816Z,18048
2016-11-20T11:52:40.830Z,49152
2016-11-20T11:53:53.876Z,47072
2016-11-20T11:55:06.370Z,48768
2016-11-20T11:56:19.951Z,49696
2016-11-20T11:57:32.509Z,48768
2016-11-20T11:58:45.090Z,48192
2016-11-20T11:59:58.137Z,48864
2016-11-20T12:01:11.707Z,48512
2016-11-20T12:02:25.335Z,23168
2016-11-20T12:03:38.370Z,44512
2016-11-20T12:04:51.413Z,46240
2016-11-20T12:06:04.958Z,46816
2016-11-20T12:07:18.045Z,44736
2016-11-20T12:08:31.138Z,44352
2016-11-20T12:09:44.751Z,42368
2016-11-20T12:10:58.275Z,40800
2016-11-20T12:12:11.848Z,41408
2016-11-20T12:13:24.875Z,41856
2016-11-20T12:14:37.925Z,39968
2016-11-20T12:15:51.509Z,39552
2016-11-20T12:17:04.568Z,40448
2016-11-20T12:18:17.671Z,40096
2016-11-20T12:19:30.211Z,39264
2016-11-20T12:20:43.257Z,39200
2016-11-20T12:21:56.318Z,38592
2016-11-20T12:23:09.347Z,32960
2016-11-20T12:24:22.442Z,36576
2016-11-20T12:25:35.416Z,34080
2016-11-20T12:26:47.928Z,31776
2016-11-20T12:28:01.404Z,32256
2016-11-20T12:29:14.425Z,34720
2016-11-20T12:30:27.416Z,32832
2016-11-20T12:31:39.887Z,30400
2016-11-20T12:32:52.549Z,31360
2016-11-20T12:34:05.157Z,31168
2016-11-20T12:35:18.675Z,30528
2016-11-20T12:36:31.167Z,29184
2016-11-20T12:37:43.696Z,28992
2016-11-20T12:38:56.258Z,28832
2016-11-20T12:40:08.682Z,29248
2016-11-20T12:41:22.196Z,28640
2016-11-20T12:42:35.245Z,27744
2016-11-20T12:43:47.774Z,27712
2016-11-20T12:45:01.340Z,27744
2016-11-20T12:46:13.833Z,27168
2016-11-20T12:47:26.933Z,26880
2016-11-20T12:48:40.522Z,25760
2016-11-20T12:49:53.061Z,25216
2016-11-20T12:51:06.636Z,24704
2016-11-20T12:52:19.152Z,24128
2016-11-20T12:53:32.714Z,24032
2016-11-20T12:55:16.924Z,22976
2016-11-20T12:56:29.407Z,23136
2016-11-20T12:57:42.433Z,22784
2016-11-20T12:58:54.947Z,22272
2016-11-20T13:00:07.965Z,21856
2016-11-20T13:01:21.551Z,21280
2016-11-20T13:02:34.625Z,21056
2016-11-20T13:03:48.212Z,19552
2016-11-20T13:05:01.226Z,19520
2016-11-20T13:06:14.764Z,19584
2016-11-20T13:07:28.356Z,19104
2016-11-20T13:08:41.929Z,18816
2016-11-20T13:09:54.990Z,18560
2016-11-20T13:11:08.086Z,18272
2016-11-20T13:12:21.652Z,18016
2016-11-20T13:13:35.195Z,17728
2016-11-20T13:14:47.713Z,17344
2016-11-20T13:16:01.282Z,17024
2016-11-20T13:17:14.812Z,16672
2016-11-20T13:18:27.867Z,16320
2016-11-20T13:19:40.359Z,16000
2016-11-20T13:20:53.354Z,15840
2016-11-20T13:22:06.452Z,15744
2016-11-20T13:23:20.058Z,15680
2016-11-20T13:24:33.144Z,15616
2016-11-20T13:25:46.721Z,15616
2016-11-20T13:26:59.670Z,15616
2016-11-20T13:28:12.116Z,15584
2016-11-20T13:29:24.087Z,15360
2016-11-20T13:30:37.630Z,15360
2016-11-20T13:31:50.628Z,15296
2016-11-20T13:33:04.185Z,15296
2016-11-20T13:34:17.218Z,15136
2016-11-20T13:35:30.251Z,14820
2016-11-20T13:36:43.284Z,14720
2016-11-20T13:37:56.810Z,14788
2016-11-20T13:39:10.385Z,14696
2016-11-20T13:40:23.428Z,14556
2016-11-20T13:41:36.997Z,14520
2016-11-20T13:42:50.599Z,14464
2016-11-20T13:44:04.112Z,14524
2016-11-20T13:45:17.266Z,14420
2016-11-20T13:46:29.794Z,14464
2016-11-20T13:47:43.440Z,14512
2016-11-20T13:48:57.026Z,14356
2016-11-20T13:50:10.095Z,14300
2016-11-20T13:51:23.691Z,14256
2016-11-20T13:52:36.674Z,14216
2016-11-20T13:53:50.210Z,14060
2016-11-20T13:55:02.732Z,14020
2016-11-20T13:56:15.745Z,13956
2016-11-20T13:57:29.304Z,13788
2016-11-20T13:58:42.873Z,13688
2016-11-20T13:59:56.484Z,13392
2016-11-20T14:01:10.073Z,13384
2016-11-20T14:02:23.084Z,13372
2016-11-20T14:03:36.157Z,13152
2016-11-20T14:04:49.175Z,13340
2016-11-20T14:06:02.224Z,13256
2016-11-20T14:07:14.755Z,13108
2016-11-20T14:08:27.745Z,12948
2016-11-20T14:09:40.769Z,12896
2016-11-20T14:10:54.377Z,12780
2016-11-20T14:12:06.907Z,12468
2016-11-20T14:13:19.395Z,12308
2016-11-20T14:14:32.877Z,12352
2016-11-20T14:15:46.403Z,12212
2016-11-20T14:16:59.972Z,12196
2016-11-20T14:18:12.993Z,12132
2016-11-20T14:19:25.482Z,12072
2016-11-20T14:20:38.543Z,11984
2016-11-20T14:21:52.167Z,11960
2016-11-20T14:23:05.176Z,11892
2016-11-20T14:24:18.818Z,11748
2016-11-20T14:25:31.313Z,11492
2016-11-20T14:26:44.366Z,11148
2016-11-20T14:27:57.433Z,10940
2016-11-20T14:29:10.949Z,10976
2016-11-20T14:30:24.565Z,10676
2016-11-20T14:31:37.614Z,10128
2016-11-20T14:32:50.600Z,9144
2016-11-20T14:34:04.109Z,8172
2016-11-20T14:35:17.706Z,7432
2016-11-20T14:36:31.300Z,7028
2016-11-20T14:37:43.742Z,6840
2016-11-20T14:38:57.338Z,6764
2016-11-20T14:40:10.342Z,6752
2016-11-20T14:41:22.844Z,6744
2016-11-20T14:42:36.466Z,6740
2016-11-20T14:43:50.012Z,6740
2016-11-20T14:45:03.615Z,6700
2016-11-20T14:46:17.190Z,6668
2016-11-20T14:47:29.185Z,6656
2016-11-20T14:48:42.166Z,6632
2016-11-20T14:49:54.665Z,6652
2016-11-20T14:51:07.193Z,6652
2016-11-20T14:52:19.770Z,6680
2016-11-20T14:53:32.310Z,6596
2016-11-20T14:54:45.308Z,6564
2016-11-20T14:55:58.872Z,6516
2016-11-20T14:57:12.423Z,6532
2016-11-20T14:58:24.919Z,6536
2016-11-20T14:59:38.458Z,6556
2016-11-20T15:00:51.007Z,6580
2016-11-20T15:02:04.069Z,6540
2016-11-20T15:03:17.095Z,6536
2016-11-20T15:04:30.132Z,6544
2016-11-20T15:05:43.189Z,6568
2016-11-20T15:06:56.250Z,6612
2016-11-20T15:08:09.251Z,6628
2016-11-20T15:09:22.763Z,6632
2016-11-20T15:10:35.775Z,6648
2016-11-20T15:11:48.812Z,6608
2016-11-20T15:13:02.445Z,6640
2016-11-20T15:14:15.496Z,6676
2016-11-20T15:15:28.476Z,6688
2016-11-20T15:18:26.647Z,6712
2016-11-20T15:19:38.681Z,6756
2016-11-20T15:20:51.212Z,6700
2016-11-20T15:22:03.757Z,6652
2016-11-20T15:23:17.300Z,6696
2016-11-20T15:24:29.841Z,6680
2016-11-20T15:25:42.906Z,6756
2016-11-20T15:26:54.960Z,6816
2016-11-20T15:28:07.432Z,6840
2016-11-20T15:29:20.467Z,6792
2016-11-20T15:30:33.482Z,6832
2016-11-20T15:31:46.632Z,6812
2016-11-20T15:32:59.176Z,6820
2016-11-20T15:34:11.662Z,6844
2016-11-20T15:35:24.625Z,6812
2016-11-20T15:36:37.665Z,6792
2016-11-20T15:37:50.733Z,6576
2016-11-20T15:39:03.789Z,6724
2016-11-20T15:40:16.824Z,6848
2016-11-20T15:41:28.757Z,6944
2016-11-20T15:42:42.345Z,6916
2016-11-20T15:43:55.962Z,6908
2016-11-20T15:45:08.965Z,6892
2016-11-20T15:46:53.665Z,6864
2016-11-20T15:48:38.345Z,6792
2016-11-20T15:49:51.431Z,6788
2016-11-20T15:51:04.441Z,6772
2016-11-20T15:52:48.589Z,6812
2016-11-20T15:54:02.193Z,6760
2016-11-20T15:55:15.236Z,6712
2016-11-20T15:56:28.280Z,6676
2016-11-20T15:57:41.282Z,6640
2016-11-20T15:58:54.253Z,6636
2016-11-20T16:00:07.749Z,6584
2016-11-20T16:01:20.810Z,6500
2016-11-20T16:02:33.837Z,6456
2016-11-20T16:03:47.490Z,6328
2016-11-20T16:05:00.542Z,6368
2016-11-20T16:06:13.079Z,6368
2016-11-20T16:07:26.074Z,6352
2016-11-20T16:08:38.108Z,6384
2016-11-20T16:09:51.086Z,6380
2016-11-20T16:11:03.596Z,6408
2016-11-20T16:12:16.625Z,6364
2016-11-20T16:13:29.088Z,6360
2016-11-20T16:14:41.080Z,6304
2016-11-20T16:15:54.630Z,6280
2016-11-20T16:17:07.116Z,6300
2016-11-20T16:18:20.628Z,6364
2016-11-20T16:19:33.637Z,6352
2016-11-20T16:20:47.232Z,6272
2016-11-20T16:21:59.194Z,6296
2016-11-20T16:23:11.743Z,6248
2016-11-20T16:24:24.815Z,6308
2016-11-20T16:25:37.896Z,6336
2016-11-20T16:26:50.884Z,6368
2016-11-20T16:28:04.413Z,6360
2016-11-20T16:29:17.921Z,6316
2016-11-20T16:30:31.490Z,6308
2016-11-20T16:31:45.015Z,6320
2016-11-20T16:32:57.548Z,6260
2016-11-20T16:34:42.174Z,6252
2016-11-20T16:35:55.235Z,6268
2016-11-20T16:37:08.860Z,6260
2016-11-20T16:38:21.412Z,6260
2016-11-20T16:39:34.999Z,6252
2016-11-20T16:40:48.041Z,6220
2016-11-20T16:42:01.026Z,6164
2016-11-20T16:43:14.590Z,6164
2016-11-20T16:44:28.153Z,6104
2016-11-20T16:45:40.684Z,6100
2016-11-20T16:46:54.287Z,6120
2016-11-20T16:48:07.855Z,6104
2016-11-20T16:49:20.920Z,6076
2016-11-20T16:50:32.926Z,6060
2016-11-20T16:51:46.446Z,6060
2016-11-20T16:52:59.991Z,6104
2016-11-20T16:54:13.068Z,6048
2016-11-20T16:55:25.502Z,6076
2016-11-20T16:56:38.990Z,6028
2016-11-20T16:57:52.041Z,6056
2016-11-20T16:59:05.556Z,6016
2016-11-20T17:00:19.086Z,6044
2016-11-20T17:01:31.537Z,6068
2016-11-20T17:02:45.085Z,6072
2016-11-20T17:03:58.154Z,6064
2016-11-20T17:05:10.681Z,6044
2016-11-20T17:06:23.189Z,6044
2016-11-20T17:07:35.711Z,6048
2016-11-20T17:08:49.298Z,6052
2016-11-20T17:10:01.825Z,6044